createdAt,value
2018-07-13T00:00:40.693Z,20.37
2018-07-13T00:01:40.816Z,20.37
2018-07-13T00:02:40.741Z,20.37
2018-07-13T00:03:40.740Z,20.37
2018-07-13T00:04:40.796Z,20.37
2018-07-13T00:05:40.701Z,20.37
2018-07-13T00:06:40.737Z,20.37
2018-07-13T00:07:40.776Z,20.31
2018-07-13T00:08:40.756Z,20.37
2018-07-13T00:09:40.691Z,20.31
2018-07-13T00:10:40.688Z,20.31
2018-07-13T00:11:40.708Z,20.31
2018-07-13T00:12:40.850Z,20.31
2018-07-13T00:13:40.687Z,20.31
2018-07-13T00:14:40.725Z,20.31
2018-07-13T00:15:40.681Z,20.31
2018-07-13T00:16:40.709Z,20.31
2018-07-13T00:17:40.705Z,20.31
2018-07-13T00:18:40.796Z,20.31
2018-07-13T00:19:40.683Z,20.31
2018-07-13T00:20:40.726Z,20.25
2018-07-13T00:21:40.716Z,20.25
2018-07-13T00:22:40.695Z,20.25
2018-07-13T00:23:40.729Z,20.19
2018-07-13T00:24:40.710Z,20.12
2018-07-13T00:25:40.707Z,20.06
2018-07-13T00:26:40.688Z,20
2018-07-13T00:27:40.680Z,20.06
2018-07-13T00:28:40.725Z,20
2018-07-13T00:29:40.752Z,20
2018-07-13T00:30:40.705Z,20
2018-07-13T00:31:40.713Z,19.94
2018-07-13T00:32:40.705Z,19.94
2018-07-13T00:33:40.724Z,19.94
2018-07-13T00:34:40.707Z,19.94
2018-07-13T00:35:40.716Z,19.87
2018-07-13T00:36:40.736Z,19.81
2018-07-13T00:37:40.770Z,19.87
2018-07-13T00:38:40.712Z,19.81
2018-07-13T00:39:40.738Z,19.81
2018-07-13T00:40:40.717Z,19.75
2018-07-13T00:41:40.723Z,19.69
2018-07-13T00:42:40.922Z,19.69
2018-07-13T00:43:40.745Z,19.69
2018-07-13T00:44:40.748Z,19.56
2018-07-13T00:45:40.833Z,19.56
2018-07-13T00:46:40.749Z,19.56
2018-07-13T00:47:40.780Z,19.56
2018-07-13T00:48:40.780Z,19.56
2018-07-13T00:49:40.737Z,19.5
2018-07-13T00:50:40.729Z,19.44
2018-07-13T00:51:40.736Z,19.37
2018-07-13T00:52:40.720Z,19.31
2018-07-13T00:53:40.720Z,19.31
2018-07-13T00:54:40.856Z,19.25
2018-07-13T00:55:40.747Z,19.25
2018-07-13T00:56:40.922Z,19.25
2018-07-13T00:57:40.744Z,19.19
2018-07-13T00:58:41.104Z,19.19
2018-07-13T00:59:40.817Z,19.19
2018-07-13T01:00:40.737Z,19.19
2018-07-13T01:01:41.009Z,19.25
2018-07-13T01:02:40.765Z,19.19
2018-07-13T01:03:40.889Z,19.25
2018-07-13T01:04:40.769Z,19.19
2018-07-13T01:05:40.785Z,19.19
2018-07-13T01:06:41.124Z,19.19
2018-07-13T01:07:40.721Z,19.19
2018-07-13T01:08:40.731Z,19.19
2018-07-13T01:09:40.717Z,19.19
2018-07-13T01:10:40.780Z,19.25
2018-07-13T01:11:40.720Z,19.25
2018-07-13T01:12:40.792Z,19.25
2018-07-13T01:13:40.758Z,19.19
2018-07-13T01:14:41.098Z,19.19
2018-07-13T01:15:40.731Z,19.19
2018-07-13T01:16:40.745Z,19.19
2018-07-13T01:17:40.803Z,19.19
2018-07-13T01:18:40.925Z,19.19
2018-07-13T01:19:40.753Z,19.19
2018-07-13T01:20:40.777Z,19.19
2018-07-13T01:21:40.723Z,19.19
2018-07-13T01:22:40.836Z,19.19
2018-07-13T01:23:40.732Z,19.19
2018-07-13T01:24:40.749Z,19.19
2018-07-13T01:25:40.744Z,19.12
2018-07-13T01:26:40.819Z,19.12
2018-07-13T01:27:40.744Z,19.12
2018-07-13T01:28:40.780Z,19.12
2018-07-13T01:29:40.767Z,19.12
2018-07-13T01:30:40.775Z,19.12
2018-07-13T01:31:40.748Z,19.12
2018-07-13T01:32:40.754Z,19.12
2018-07-13T01:33:40.814Z,19.19
2018-07-13T01:34:40.768Z,19.12
2018-07-13T01:35:40.775Z,19.19
2018-07-13T01:36:40.799Z,19.19
2018-07-13T01:37:40.794Z,19.19
2018-07-13T01:38:40.763Z,19.19
2018-07-13T01:39:40.749Z,19.12
2018-07-13T01:40:40.767Z,19.19
2018-07-13T01:41:40.758Z,19.12
2018-07-13T01:42:40.750Z,19.19
2018-07-13T01:43:40.740Z,19.19
2018-07-13T01:44:40.777Z,19.19
2018-07-13T01:45:40.774Z,19.19
2018-07-13T01:46:40.809Z,19.19
2018-07-13T01:47:40.771Z,19.19
2018-07-13T01:48:40.809Z,19.25
2018-07-13T01:49:40.776Z,19.19
2018-07-13T01:50:40.790Z,19.25
2018-07-13T01:51:40.794Z,19.25
2018-07-13T01:52:40.732Z,19.25
2018-07-13T01:53:40.758Z,19.25
2018-07-13T01:54:40.765Z,19.25
2018-07-13T01:55:41.720Z,19.25
2018-07-13T01:56:40.745Z,19.25
2018-07-13T01:57:40.748Z,19.25
2018-07-13T01:58:40.857Z,19.25
2018-07-13T01:59:40.952Z,19.19
2018-07-13T02:00:40.822Z,19.19
2018-07-13T02:01:40.905Z,19.19
2018-07-13T02:02:40.800Z,19.12
2018-07-13T02:03:40.795Z,19.12
2018-07-13T02:04:40.876Z,19.06
2018-07-13T02:05:40.820Z,19.06
2018-07-13T02:06:40.788Z,19.06
2018-07-13T02:07:40.765Z,19.06
2018-07-13T02:08:40.831Z,19.06
2018-07-13T02:09:40.820Z,19.06
2018-07-13T02:10:40.779Z,19.06
2018-07-13T02:11:40.820Z,19.06
2018-07-13T02:12:40.830Z,19
2018-07-13T02:13:40.791Z,19
2018-07-13T02:14:40.788Z,18.94
2018-07-13T02:15:40.806Z,18.94
2018-07-13T02:16:40.755Z,18.87
2018-07-13T02:17:40.755Z,18.94
2018-07-13T02:18:40.873Z,18.87
2018-07-13T02:19:40.788Z,18.81
2018-07-13T02:20:40.821Z,18.75
2018-07-13T02:21:40.797Z,18.75
2018-07-13T02:22:40.823Z,18.81
2018-07-13T02:23:40.805Z,18.75
2018-07-13T02:24:40.956Z,18.69
2018-07-13T02:25:40.805Z,18.69
2018-07-13T02:26:40.831Z,18.69
2018-07-13T02:27:40.819Z,18.69
2018-07-13T02:28:40.756Z,18.69
2018-07-13T02:29:41.295Z,18.62
2018-07-13T02:30:40.995Z,18.56
2018-07-13T02:31:40.770Z,18.5
2018-07-13T02:32:40.789Z,18.5
2018-07-13T02:33:40.962Z,18.5
2018-07-13T02:34:40.819Z,18.5
2018-07-13T02:35:40.935Z,18.56
2018-07-13T02:36:40.828Z,18.5
2018-07-13T02:37:40.818Z,18.5
2018-07-13T02:38:40.838Z,18.5
2018-07-13T02:39:40.801Z,18.5
2018-07-13T02:40:40.775Z,18.44
2018-07-13T02:41:40.990Z,18.44
2018-07-13T02:42:40.908Z,18.44
2018-07-13T02:43:40.834Z,18.44
2018-07-13T02:44:40.812Z,18.44
2018-07-13T02:45:40.822Z,18.5
2018-07-13T02:46:40.817Z,18.44
2018-07-13T02:47:40.785Z,18.5
2018-07-13T02:48:40.804Z,18.5
2018-07-13T02:49:40.901Z,18.5
2018-07-13T02:50:40.821Z,18.44
2018-07-13T02:51:40.990Z,18.44
2018-07-13T02:52:40.897Z,18.5
2018-07-13T02:53:40.844Z,18.5
2018-07-13T02:54:40.833Z,18.5
2018-07-13T02:55:40.856Z,18.44
2018-07-13T02:56:40.793Z,18.5
2018-07-13T02:57:40.805Z,18.5
2018-07-13T02:58:40.858Z,18.5
2018-07-13T02:59:41.264Z,18.5
2018-07-13T03:00:40.829Z,18.56
2018-07-13T03:01:40.849Z,18.56
2018-07-13T03:02:40.858Z,18.44
2018-07-13T03:03:40.810Z,18.31
2018-07-13T03:04:40.877Z,18.25
2018-07-13T03:05:40.856Z,18.12
2018-07-13T03:06:40.863Z,18.12
2018-07-13T03:07:40.889Z,18.06
2018-07-13T03:08:40.848Z,18.06
2018-07-13T03:09:40.825Z,18.06
2018-07-13T03:10:40.805Z,18
2018-07-13T03:11:40.829Z,18
2018-07-13T03:12:40.802Z,17.94
2018-07-13T03:13:40.825Z,17.87
2018-07-13T03:14:40.955Z,17.94
2018-07-13T03:15:40.823Z,17.87
2018-07-13T03:16:40.831Z,17.87
2018-07-13T03:17:41.034Z,17.87
2018-07-13T03:18:40.811Z,17.87
2018-07-13T03:19:41.004Z,17.87
2018-07-13T03:20:40.816Z,17.87
2018-07-13T03:21:40.946Z,17.81
2018-07-13T03:22:40.893Z,17.81
2018-07-13T03:23:40.834Z,17.75
2018-07-13T03:24:40.857Z,17.75
2018-07-13T03:25:40.885Z,17.75
2018-07-13T03:26:40.840Z,17.69
2018-07-13T03:27:40.862Z,17.69
2018-07-13T03:28:40.828Z,17.69
2018-07-13T03:29:40.808Z,17.69
2018-07-13T03:30:40.907Z,17.69
2018-07-13T03:31:40.833Z,17.69
2018-07-13T03:32:40.847Z,17.62
2018-07-13T03:33:40.828Z,17.62
2018-07-13T03:34:40.882Z,17.69
2018-07-13T03:35:40.896Z,17.62
2018-07-13T03:36:40.836Z,17.62
2018-07-13T03:37:40.845Z,17.69
2018-07-13T03:38:40.826Z,17.62
2018-07-13T03:39:40.864Z,17.62
2018-07-13T03:40:40.823Z,17.62
2018-07-13T03:41:40.882Z,17.62
2018-07-13T03:42:41.364Z,17.62
2018-07-13T03:43:40.813Z,17.62
2018-07-13T03:44:40.819Z,17.56
2018-07-13T03:45:40.833Z,17.56
2018-07-13T03:46:40.809Z,17.5
2018-07-13T03:47:40.898Z,17.56
2018-07-13T03:48:40.911Z,17.56
2018-07-13T03:49:40.838Z,17.56
2018-07-13T03:50:40.851Z,17.56
2018-07-13T03:51:40.850Z,17.5
2018-07-13T03:52:40.860Z,17.5
2018-07-13T03:53:40.813Z,17.5
2018-07-13T03:54:40.882Z,17.5
2018-07-13T03:55:40.890Z,17.5
2018-07-13T03:56:40.878Z,17.5
2018-07-13T03:57:40.881Z,17.5
2018-07-13T03:58:40.900Z,17.5
2018-07-13T03:59:40.931Z,17.5
2018-07-13T04:00:40.887Z,17.5
2018-07-13T04:01:40.858Z,17.5
2018-07-13T04:02:40.987Z,17.5
2018-07-13T04:03:40.852Z,17.56
2018-07-13T04:04:40.860Z,17.56
2018-07-13T04:05:40.886Z,17.62
2018-07-13T04:06:40.913Z,17.56
2018-07-13T04:07:40.842Z,17.62
2018-07-13T04:08:40.901Z,17.62
2018-07-13T04:09:40.876Z,17.62
2018-07-13T04:10:40.863Z,17.69
2018-07-13T04:11:40.856Z,17.69
2018-07-13T04:12:40.862Z,17.62
2018-07-13T04:13:40.863Z,17.62
2018-07-13T04:14:41.371Z,17.62
2018-07-13T04:15:40.880Z,17.62
2018-07-13T04:16:40.877Z,17.56
2018-07-13T04:17:40.860Z,17.5
2018-07-13T04:18:41.657Z,17.56
2018-07-13T04:19:41.585Z,17.5
2018-07-13T04:20:41.577Z,17.5
2018-07-13T04:21:41.649Z,17.5
2018-07-13T04:22:41.619Z,17.5
2018-07-13T04:23:41.641Z,17.5
2018-07-13T04:24:41.589Z,17.5
2018-07-13T04:25:41.735Z,17.56
2018-07-13T04:26:41.628Z,17.62
2018-07-13T04:27:41.615Z,17.62
2018-07-13T04:28:41.855Z,17.69
2018-07-13T04:29:41.606Z,17.69
2018-07-13T04:30:41.606Z,17.69
2018-07-13T04:31:41.819Z,17.69
2018-07-13T04:32:41.629Z,17.75
2018-07-13T04:33:41.987Z,17.75
2018-07-13T04:34:41.683Z,17.75
2018-07-13T04:35:41.582Z,17.81
2018-07-13T04:36:41.626Z,17.81
2018-07-13T04:37:41.713Z,17.81
2018-07-13T04:38:41.671Z,17.94
2018-07-13T04:39:41.617Z,17.87
2018-07-13T04:40:41.918Z,17.87
2018-07-13T04:41:41.619Z,17.94
2018-07-13T04:42:41.716Z,17.94
2018-07-13T04:43:41.600Z,17.94
2018-07-13T04:44:41.616Z,18
2018-07-13T04:45:41.796Z,17.94
2018-07-13T04:46:41.723Z,18.06
2018-07-13T04:47:41.628Z,18.06
2018-07-13T04:48:41.811Z,18.06
2018-07-13T04:49:41.743Z,18
2018-07-13T04:50:41.614Z,18
2018-07-13T04:51:42.103Z,18.06
2018-07-13T04:52:41.920Z,18.06
2018-07-13T04:53:41.726Z,18
2018-07-13T04:54:41.611Z,18.06
2018-07-13T04:55:41.586Z,18
2018-07-13T04:56:41.635Z,18.06
2018-07-13T04:57:41.767Z,18.06
2018-07-13T04:58:41.560Z,18.06
2018-07-13T04:59:41.655Z,18.06
2018-07-13T05:00:42.480Z,18.06
2018-07-13T05:01:41.901Z,18.12
2018-07-13T05:02:41.686Z,18.06
2018-07-13T05:03:41.682Z,18.12
2018-07-13T05:04:41.647Z,18.06
2018-07-13T05:05:41.444Z,18.12
2018-07-13T05:06:41.703Z,18.12
2018-07-13T05:07:41.632Z,18.12
2018-07-13T05:08:41.637Z,18.19
2018-07-13T05:09:41.635Z,18.19
2018-07-13T05:10:41.689Z,18.19
2018-07-13T05:11:41.704Z,18.12
2018-07-13T05:12:41.667Z,18.25
2018-07-13T05:13:41.680Z,18.19
2018-07-13T05:14:41.767Z,18.25
2018-07-13T05:15:41.875Z,18.25
2018-07-13T05:16:41.715Z,18.25
2018-07-13T05:17:40.962Z,18.19
2018-07-13T05:18:41.864Z,18.19
2018-07-13T05:19:41.539Z,18.25
2018-07-13T05:20:41.617Z,18.25
2018-07-13T05:21:41.227Z,18.25
2018-07-13T05:22:41.640Z,18.25
2018-07-13T05:23:41.650Z,18.31
2018-07-13T05:24:41.686Z,18.31
2018-07-13T05:25:41.857Z,18.31
2018-07-13T05:26:41.569Z,18.25
2018-07-13T05:27:41.574Z,18.25
2018-07-13T05:28:41.606Z,18.19
2018-07-13T05:29:41.608Z,18.19
2018-07-13T05:30:42.018Z,18.25
2018-07-13T05:31:41.522Z,18.19
2018-07-13T05:32:41.618Z,18.19
2018-07-13T05:33:41.550Z,18.25
2018-07-13T05:34:41.543Z,18.19
2018-07-13T05:35:41.545Z,18.19
2018-07-13T05:36:41.547Z,18.25
2018-07-13T05:37:41.588Z,18.19
2018-07-13T05:38:41.558Z,18.25
2018-07-13T05:39:41.609Z,18.31
2018-07-13T05:40:41.589Z,18.31
2018-07-13T05:41:41.571Z,18.37
2018-07-13T05:42:41.565Z,18.37
2018-07-13T05:43:41.603Z,18.37
2018-07-13T05:44:41.612Z,18.37
2018-07-13T05:45:45.641Z,18.44
2018-07-13T05:46:42.277Z,18.44
2018-07-13T05:47:41.306Z,18.44
2018-07-13T05:48:41.602Z,18.5
2018-07-13T05:49:42.012Z,18.56
2018-07-13T05:50:41.620Z,18.56
2018-07-13T05:51:41.535Z,18.62
2018-07-13T05:52:41.619Z,18.62
2018-07-13T05:53:41.963Z,18.62
2018-07-13T05:54:41.687Z,18.62
2018-07-13T05:55:41.595Z,18.69
2018-07-13T05:56:41.577Z,18.75
2018-07-13T05:57:41.565Z,18.75
2018-07-13T05:58:41.970Z,18.75
2018-07-13T05:59:41.606Z,18.81
2018-07-13T06:00:41.901Z,18.81
2018-07-13T06:01:41.571Z,18.87
2018-07-13T06:02:41.808Z,18.87
2018-07-13T06:03:41.575Z,18.87
2018-07-13T06:04:41.564Z,19
2018-07-13T06:05:41.731Z,19
2018-07-13T06:06:41.556Z,19
2018-07-13T06:07:41.577Z,19.06
2018-07-13T06:08:41.827Z,19.06
2018-07-13T06:09:42.197Z,19.12
2018-07-13T06:10:41.584Z,19.06
2018-07-13T06:11:41.857Z,19.12
2018-07-13T06:12:41.578Z,19.12
2018-07-13T06:13:41.590Z,19.12
2018-07-13T06:14:42.246Z,19.19
2018-07-13T06:15:42.123Z,19.19
2018-07-13T06:16:41.708Z,19.12
2018-07-13T06:17:41.368Z,19.19
2018-07-13T06:18:41.094Z,19.12
2018-07-13T06:19:41.104Z,19.19
2018-07-13T06:20:40.978Z,19.19
2018-07-13T06:21:41.010Z,19.12
2018-07-13T06:22:40.970Z,19.06
2018-07-13T06:23:40.963Z,19.12
2018-07-13T06:24:40.928Z,19.06
2018-07-13T06:25:40.994Z,19.19
2018-07-13T06:26:41.971Z,19.19
2018-07-13T06:27:40.945Z,19.19
2018-07-13T06:28:41.069Z,19.19
2018-07-13T06:29:40.937Z,19.19
2018-07-13T06:30:40.948Z,19.19
2018-07-13T06:31:41.098Z,19.25
2018-07-13T06:32:41.127Z,19.19
2018-07-13T06:33:41.865Z,19.19
2018-07-13T06:34:40.984Z,19.19
2018-07-13T06:35:41.072Z,19.19
2018-07-13T06:36:42.227Z,19.19
2018-07-13T06:37:41.152Z,19.19
2018-07-13T06:38:41.092Z,19.19
2018-07-13T06:39:41.058Z,19.19
2018-07-13T06:40:41.125Z,19.25
2018-07-13T06:41:40.997Z,19.25
2018-07-13T06:42:41.132Z,19.25
2018-07-13T06:43:41.222Z,19.31
2018-07-13T06:44:41.906Z,19.31
2018-07-13T06:45:41.060Z,19.37
2018-07-13T06:46:41.109Z,19.44
2018-07-13T06:47:40.975Z,19.44
2018-07-13T06:48:41.081Z,19.5
2018-07-13T06:49:40.967Z,19.56
2018-07-13T06:50:42.194Z,19.56
2018-07-13T06:51:40.979Z,19.69
2018-07-13T06:52:42.276Z,19.69
2018-07-13T06:53:41.020Z,19.69
2018-07-13T06:54:41.122Z,19.75
2018-07-13T06:55:40.944Z,19.75
2018-07-13T06:56:42.078Z,19.81
2018-07-13T06:57:41.028Z,19.81
2018-07-13T06:58:40.973Z,19.81
2018-07-13T06:59:41.088Z,19.87
2018-07-13T07:00:41.135Z,19.87
2018-07-13T07:01:41.173Z,19.94
2018-07-13T07:02:40.999Z,20
2018-07-13T07:03:41.082Z,20
2018-07-13T07:04:41.062Z,20.06
2018-07-13T07:05:41.008Z,20
2018-07-13T07:06:40.998Z,20
2018-07-13T07:07:42.423Z,20.06
2018-07-13T07:08:40.947Z,20.12
2018-07-13T07:09:40.993Z,20.12
2018-07-13T07:10:41.004Z,20.12
2018-07-13T07:11:41.054Z,20.19
2018-07-13T07:12:41.018Z,20.25
2018-07-13T07:13:41.053Z,20.19
2018-07-13T07:14:41.159Z,20.25
2018-07-13T07:15:41.173Z,20.31
2018-07-13T07:16:41.081Z,20.37
2018-07-13T07:17:42.404Z,20.37
2018-07-13T07:18:41.692Z,20.44
2018-07-13T07:19:41.111Z,20.44
2018-07-13T07:20:41.030Z,20.5
2018-07-13T07:21:41.643Z,20.5
2018-07-13T07:22:41.018Z,20.56
2018-07-13T07:23:41.099Z,20.62
2018-07-13T07:24:41.102Z,20.62
2018-07-13T07:25:41.568Z,20.69
2018-07-13T07:26:41.116Z,20.75
2018-07-13T07:27:41.118Z,20.75
2018-07-13T07:28:40.986Z,20.81
2018-07-13T07:29:41.086Z,20.81
2018-07-13T07:30:42.408Z,20.88
2018-07-13T07:31:41.101Z,20.94
2018-07-13T07:32:41.026Z,20.94
2018-07-13T07:33:41.163Z,21
2018-07-13T07:34:41.131Z,21.06
2018-07-13T07:35:41.129Z,21.06
2018-07-13T07:36:41.412Z,21.12
2018-07-13T07:37:41.116Z,21.12
2018-07-13T07:38:41.191Z,21.19
2018-07-13T07:39:41.130Z,21.25
2018-07-13T07:40:41.178Z,21.19
2018-07-13T07:41:41.116Z,21.25
2018-07-13T07:42:41.024Z,21.31
2018-07-13T07:43:41.090Z,21.31
2018-07-13T07:44:41.096Z,21.31
2018-07-13T07:45:41.183Z,21.37
2018-07-13T07:46:41.128Z,21.44
2018-07-13T07:47:41.221Z,21.44
2018-07-13T07:48:41.160Z,21.44
2018-07-13T07:49:41.110Z,21.44
2018-07-13T07:50:41.102Z,21.5
2018-07-13T07:51:41.111Z,21.5
2018-07-13T07:52:41.092Z,21.56
2018-07-13T07:53:41.015Z,21.62
2018-07-13T07:54:41.000Z,21.69
2018-07-13T07:55:41.041Z,21.75
2018-07-13T07:56:41.035Z,21.81
2018-07-13T07:57:41.244Z,21.75
2018-07-13T07:58:41.118Z,21.81
2018-07-13T07:59:41.133Z,21.75
2018-07-13T08:00:41.052Z,21.75
2018-07-13T08:01:41.447Z,21.81
2018-07-13T08:02:41.074Z,21.81
2018-07-13T08:03:41.110Z,21.87
2018-07-13T08:04:41.074Z,21.94
2018-07-13T08:05:41.207Z,21.94
2018-07-13T08:06:44.005Z,22
2018-07-13T08:07:42.009Z,22
2018-07-13T08:08:41.167Z,22.06
2018-07-13T08:09:41.057Z,22.06
2018-07-13T08:10:41.223Z,22.13
2018-07-13T08:11:41.177Z,22.13
2018-07-13T08:12:41.132Z,22.13
2018-07-13T08:13:41.982Z,22.13
2018-07-13T08:14:42.128Z,22.19
2018-07-13T08:15:41.080Z,22.13
2018-07-13T08:16:41.189Z,22.13
2018-07-13T08:17:45.040Z,22.19
2018-07-13T08:18:41.108Z,22.31
2018-07-13T08:19:41.155Z,22.31
2018-07-13T08:20:41.058Z,22.44
2018-07-13T08:21:41.075Z,22.5
2018-07-13T08:22:41.061Z,22.5
2018-07-13T08:23:41.048Z,22.5
2018-07-13T08:24:41.083Z,22.5
2018-07-13T08:25:41.047Z,22.5
2018-07-13T08:26:41.610Z,22.56
2018-07-13T08:27:41.099Z,22.56
2018-07-13T08:28:41.061Z,22.69
2018-07-13T08:29:41.067Z,22.69
2018-07-13T08:30:40.992Z,22.81
2018-07-13T08:31:41.157Z,22.87
2018-07-13T08:32:41.071Z,22.94
2018-07-13T08:33:41.072Z,23
2018-07-13T08:34:41.065Z,23.06
2018-07-13T08:35:41.148Z,23
2018-07-13T08:36:41.083Z,23
2018-07-13T08:37:41.307Z,23
2018-07-13T08:38:41.077Z,23
2018-07-13T08:39:41.147Z,23.06
2018-07-13T08:40:41.019Z,23.12
2018-07-13T08:41:41.053Z,23.12
2018-07-13T08:42:41.117Z,23.19
2018-07-13T08:43:41.249Z,23.25
2018-07-13T08:44:40.996Z,23.25
2018-07-13T08:45:41.370Z,23.31
2018-07-13T08:46:41.019Z,23.31
2018-07-13T08:47:41.047Z,23.38
2018-07-13T08:48:41.048Z,23.38
2018-07-13T08:49:41.104Z,23.5
2018-07-13T08:50:41.616Z,23.5
2018-07-13T08:51:41.833Z,23.56
2018-07-13T08:52:41.091Z,23.56
2018-07-13T08:53:41.069Z,23.56
2018-07-13T08:54:41.133Z,23.56
2018-07-13T08:55:41.022Z,23.62
2018-07-13T08:56:41.220Z,23.75
2018-07-13T08:57:41.093Z,23.75
2018-07-13T08:58:41.192Z,23.75
2018-07-13T08:59:41.455Z,23.81
2018-07-13T09:00:41.151Z,23.87
2018-07-13T09:01:41.855Z,23.75
2018-07-13T09:02:41.075Z,23.81
2018-07-13T09:03:41.103Z,23.81
2018-07-13T09:04:41.135Z,23.81
2018-07-13T09:05:41.687Z,23.87
2018-07-13T09:06:41.190Z,23.87
2018-07-13T09:07:41.449Z,23.87
2018-07-13T09:08:41.111Z,23.94
2018-07-13T09:09:41.093Z,24
2018-07-13T09:10:41.419Z,24.12
2018-07-13T09:11:41.271Z,24.12
2018-07-13T09:12:41.657Z,24.12
2018-07-13T09:13:41.160Z,24.19
2018-07-13T09:14:41.077Z,24.12
2018-07-13T09:15:41.055Z,24.12
2018-07-13T09:16:40.997Z,24.12
2018-07-13T09:17:41.076Z,24.19
2018-07-13T09:18:41.130Z,24.25
2018-07-13T09:19:41.020Z,24.31
2018-07-13T09:20:41.147Z,24.31
2018-07-13T09:21:41.321Z,24.31
2018-07-13T09:22:41.098Z,24.31
2018-07-13T09:23:41.149Z,24.31
2018-07-13T09:24:41.162Z,24.37
2018-07-13T09:25:41.079Z,24.44
2018-07-13T09:26:41.080Z,24.44
2018-07-13T09:27:41.164Z,24.44
2018-07-13T09:28:41.112Z,24.5
2018-07-13T09:29:41.195Z,24.56
2018-07-13T09:30:41.100Z,24.63
2018-07-13T09:31:41.092Z,24.63
2018-07-13T09:32:41.121Z,24.69
2018-07-13T09:33:41.487Z,24.75
2018-07-13T09:34:41.157Z,24.81
2018-07-13T09:35:41.159Z,24.94
2018-07-13T09:36:41.103Z,24.94
2018-07-13T09:37:41.048Z,24.94
2018-07-13T09:38:41.071Z,25
2018-07-13T09:39:41.116Z,25
2018-07-13T09:40:41.154Z,25.06
2018-07-13T09:41:41.139Z,25.12
2018-07-13T09:42:41.065Z,25.12
2018-07-13T09:43:41.095Z,25.19
2018-07-13T09:44:41.035Z,25.19
2018-07-13T09:45:41.138Z,25.25
2018-07-13T09:46:41.660Z,25.31
2018-07-13T09:47:41.038Z,25.31
2018-07-13T09:48:41.049Z,25.37
2018-07-13T09:49:41.126Z,25.37
2018-07-13T09:50:41.066Z,25.44
2018-07-13T09:51:41.118Z,25.37
2018-07-13T09:52:41.079Z,25.31
2018-07-13T09:53:41.681Z,25.37
2018-07-13T09:54:41.088Z,25.37
2018-07-13T09:55:41.067Z,25.44
2018-07-13T09:56:41.236Z,25.44
2018-07-13T09:57:41.094Z,25.5
2018-07-13T09:58:41.127Z,25.44
2018-07-13T09:59:41.187Z,25.37
2018-07-13T10:00:43.305Z,25.37
2018-07-13T10:01:43.727Z,25.37
2018-07-13T10:02:41.117Z,25.44
2018-07-13T10:03:41.162Z,25.44
2018-07-13T10:04:41.133Z,25.56
2018-07-13T10:05:41.153Z,25.62
2018-07-13T10:06:41.182Z,25.62
2018-07-13T10:07:41.124Z,25.69
2018-07-13T10:08:41.124Z,25.69
2018-07-13T10:09:41.179Z,25.75
2018-07-13T10:10:41.101Z,25.81
2018-07-13T10:11:41.144Z,25.81
2018-07-13T10:12:41.118Z,25.81
2018-07-13T10:13:41.112Z,25.88
2018-07-13T10:14:41.130Z,25.88
2018-07-13T10:15:41.080Z,25.94
2018-07-13T10:16:41.268Z,26
2018-07-13T10:17:42.719Z,26
2018-07-13T10:18:41.202Z,26
2018-07-13T10:19:41.132Z,26
2018-07-13T10:20:41.510Z,26
2018-07-13T10:21:41.092Z,26.06
2018-07-13T10:22:41.155Z,26.12
2018-07-13T10:23:41.153Z,26.12
2018-07-13T10:24:41.168Z,26.12
2018-07-13T10:25:41.198Z,26.19
2018-07-13T10:26:41.115Z,26.25
2018-07-13T10:27:41.117Z,26.25
2018-07-13T10:28:41.363Z,26.25
2018-07-13T10:29:43.645Z,26.25
2018-07-13T10:30:41.284Z,26.25
2018-07-13T10:31:41.172Z,26.19
2018-07-13T10:32:41.217Z,26.25
2018-07-13T10:33:41.969Z,26.19
2018-07-13T10:34:41.250Z,26.19
2018-07-13T10:35:41.448Z,26.19
2018-07-13T10:36:41.092Z,26.25
2018-07-13T10:37:41.191Z,26.37
2018-07-13T10:38:41.119Z,26.37
2018-07-13T10:39:41.269Z,26.37
2018-07-13T10:40:41.136Z,26.37
2018-07-13T10:41:41.934Z,26.25
2018-07-13T10:42:41.209Z,26.12
2018-07-13T10:43:41.139Z,26.12
2018-07-13T10:44:41.164Z,26.12
2018-07-13T10:45:41.584Z,26.19
2018-07-13T10:46:41.228Z,26.19
2018-07-13T10:47:41.471Z,26.25
2018-07-13T10:48:41.219Z,26.25
2018-07-13T10:49:41.171Z,26.37
2018-07-13T10:50:41.164Z,26.56
2018-07-13T10:51:41.342Z,26.5
2018-07-13T10:52:41.091Z,26.69
2018-07-13T10:53:41.119Z,26.69
2018-07-13T10:54:41.134Z,26.75
2018-07-13T10:55:41.134Z,26.75
2018-07-13T10:56:41.089Z,26.81
2018-07-13T10:57:41.172Z,27.06
2018-07-13T10:58:42.016Z,27.06
2018-07-13T10:59:41.205Z,27
2018-07-13T11:00:41.134Z,27
2018-07-13T11:01:41.133Z,26.94
2018-07-13T11:02:41.137Z,26.94
2018-07-13T11:03:41.236Z,26.94
2018-07-13T11:04:41.178Z,26.87
2018-07-13T11:05:41.099Z,26.94
2018-07-13T11:06:41.180Z,26.87
2018-07-13T11:07:41.154Z,26.75
2018-07-13T11:08:41.220Z,26.75
2018-07-13T11:09:41.187Z,26.75
2018-07-13T11:10:41.105Z,26.69
2018-07-13T11:11:41.201Z,26.69
2018-07-13T11:12:41.148Z,26.75
2018-07-13T11:13:41.924Z,26.87
2018-07-13T11:14:41.213Z,26.94
2018-07-13T11:15:41.136Z,27
2018-07-13T11:16:41.121Z,27.06
2018-07-13T11:17:44.134Z,27
2018-07-13T11:18:41.762Z,27.06
2018-07-13T11:19:41.145Z,26.94
2018-07-13T11:20:41.129Z,26.87
2018-07-13T11:21:41.146Z,26.75
2018-07-13T11:22:41.164Z,26.81
2018-07-13T11:23:41.157Z,26.87
2018-07-13T11:24:42.109Z,26.87
2018-07-13T11:25:41.154Z,26.94
2018-07-13T11:26:41.162Z,27
2018-07-13T11:27:41.261Z,27.06
2018-07-13T11:28:41.131Z,27.19
2018-07-13T11:29:41.588Z,27.25
2018-07-13T11:30:41.244Z,27.25
2018-07-13T11:31:41.297Z,27.37
2018-07-13T11:32:41.186Z,27.44
2018-07-13T11:33:41.146Z,27.5
2018-07-13T11:34:41.241Z,27.75
2018-07-13T11:35:41.173Z,27.62
2018-07-13T11:36:41.951Z,27.56
2018-07-13T11:37:41.355Z,27.62
2018-07-13T11:38:41.217Z,27.56
2018-07-13T11:39:43.306Z,27.56
2018-07-13T11:40:41.203Z,27.62
2018-07-13T11:41:41.271Z,27.62
2018-07-13T11:42:41.132Z,27.69
2018-07-13T11:43:41.331Z,27.69
2018-07-13T11:44:41.162Z,27.69
2018-07-13T11:45:41.877Z,27.62
2018-07-13T11:46:41.313Z,27.5
2018-07-13T11:47:41.312Z,27.56
2018-07-13T11:48:41.189Z,27.62
2018-07-13T11:49:41.211Z,27.75
2018-07-13T11:50:41.321Z,27.81
2018-07-13T11:51:41.239Z,27.81
2018-07-13T11:52:41.244Z,27.87
2018-07-13T11:53:42.276Z,27.81
2018-07-13T11:54:43.417Z,27.81
2018-07-13T11:55:41.365Z,27.87
2018-07-13T11:56:41.383Z,27.94
2018-07-13T11:57:42.396Z,27.94
2018-07-13T11:58:41.319Z,28
2018-07-13T11:59:41.409Z,28.06
2018-07-13T12:00:42.103Z,28
2018-07-13T12:01:41.307Z,28.06
2018-07-13T12:02:41.232Z,28.12
2018-07-13T12:03:41.366Z,28.06
2018-07-13T12:04:41.548Z,28.12
2018-07-13T12:05:41.333Z,28.19
2018-07-13T12:06:41.351Z,28.25
2018-07-13T12:07:43.180Z,28.31
2018-07-13T12:08:41.251Z,28.38
2018-07-13T12:09:41.267Z,28.38
2018-07-13T12:10:41.257Z,28.5
2018-07-13T12:11:41.376Z,28.44
2018-07-13T12:12:42.031Z,28.44
2018-07-13T12:13:41.314Z,28.44
2018-07-13T12:14:41.909Z,28.44
2018-07-13T12:15:41.299Z,28.44
2018-07-13T12:16:42.455Z,28.38
2018-07-13T12:17:42.301Z,28.19
2018-07-13T12:18:41.305Z,28.12
2018-07-13T12:19:41.143Z,28.12
2018-07-13T12:20:41.198Z,28.12
2018-07-13T12:21:41.242Z,28.12
2018-07-13T12:22:41.363Z,28.12
2018-07-13T12:23:42.197Z,28.12
2018-07-13T12:24:41.276Z,28.12
2018-07-13T12:25:41.275Z,28.19
2018-07-13T12:26:41.230Z,28.19
2018-07-13T12:27:41.201Z,28.25
2018-07-13T12:28:41.191Z,28.31
2018-07-13T12:29:41.246Z,28.25
2018-07-13T12:30:41.213Z,28.19
2018-07-13T12:31:41.331Z,28.06
2018-07-13T12:32:41.404Z,28.06
2018-07-13T12:33:42.082Z,28.06
2018-07-13T12:34:41.286Z,28.06
2018-07-13T12:35:41.188Z,28.06
2018-07-13T12:36:41.363Z,28
2018-07-13T12:37:41.226Z,28.06
2018-07-13T12:38:41.265Z,28.12
2018-07-13T12:39:41.561Z,28.19
2018-07-13T12:40:41.265Z,28.31
2018-07-13T12:41:41.258Z,28.38
2018-07-13T12:42:41.394Z,28.44
2018-07-13T12:43:41.209Z,28.56
2018-07-13T12:44:41.263Z,28.62
2018-07-13T12:45:42.264Z,28.62
2018-07-13T12:46:41.236Z,28.69
2018-07-13T12:47:41.383Z,28.62
2018-07-13T12:48:41.572Z,28.62
2018-07-13T12:49:41.279Z,28.69
2018-07-13T12:50:41.183Z,28.81
2018-07-13T12:51:41.420Z,28.81
2018-07-13T12:52:41.399Z,28.87
2018-07-13T12:53:41.227Z,28.75
2018-07-13T12:54:42.430Z,28.56
2018-07-13T12:55:41.225Z,28.5
2018-07-13T12:56:41.363Z,28.31
2018-07-13T12:57:41.455Z,28.19
2018-07-13T12:58:41.234Z,28.12